sensor_id;sensor_type;location;lat;lon;timestamp;pressure;altitude;pressure_sealevel;temperature;humidity
56681;BME280;42558;52.388;13.390;2023-02-22T00:01:02;101257.67;;;6.25;100.00
56681;BME280;42558;52.388;13.390;2023-02-22T00:03:36;101256.38;;;6.22;100.00
56681;BME280;42558;52.388;13.390;2023-02-22T00:06:16;101258.36;;;6.20;100.00
56681;BME280;42558;52.388;13.390;2023-02-22T00:08:47;101259.39;;;6.19;100.00
56681;BME280;42558;52.388;13.390;2023-02-22T00:11:21;101254.28;;;6.18;100.00
56681;BME280;42558;52.388;13.390;2023-02-22T00:13:49;101249.66;;;6.16;100.00
56681;BME280;42558;52.388;13.390;2023-02-22T00:16:21;101249.30;;;6.11;100.00
56681;BME280;42558;52.388;13.390;2023-02-22T00:18:49;101250.73;;;6.08;100.00
56681;BME280;42558;52.388;13.390;2023-02-22T00:21:18;101249.80;;;6.07;100.00
56681;BME280;42558;52.388;13.390;2023-02-22T00:23:47;101249.03;;;6.00;100.00
56681;BME280;42558;52.388;13.390;2023-02-22T00:26:19;101245.48;;;5.99;100.00
56681;BME280;42558;52.388;13.390;2023-02-22T00:28:53;101243.25;;;6.00;100.00
56681;BME280;42558;52.388;13.390;2023-02-22T00:31:23;101246.73;;;6.00;100.00
56681;BME280;42558;52.388;13.390;2023-02-22T00:33:52;101243.18;;;5.98;100.00
56681;BME280;42558;52.388;13.390;2023-02-22T00:36:23;101244.35;;;5.97;100.00
56681;BME280;42558;52.388;13.390;2023-02-22T00:38:53;101244.39;;;5.94;100.00
56681;BME280;42558;52.388;13.390;2023-02-22T00:41:22;101244.27;;;5.91;100.00
56681;BME280;42558;52.388;13.390;2023-02-22T00:43:52;101248.58;;;5.90;100.00
56681;BME280;42558;52.388;13.390;2023-02-22T00:46:22;101250.02;;;5.87;100.00
56681;BME280;42558;52.388;13.390;2023-02-22T00:48:52;101251.52;;;5.85;100.00
56681;BME280;42558;52.388;13.390;2023-02-22T00:51:26;101254.42;;;5.83;100.00
56681;BME280;42558;52.388;13.390;2023-02-22T00:53:57;101252.55;;;5.81;100.00
56681;BME280;42558;52.388;13.390;2023-02-22T00:56:27;101249.92;;;5.81;100.00
56681;BME280;42558;52.388;13.390;2023-02-22T00:58:57;101250.95;;;5.80;100.00
56681;BME280;42558;52.388;13.390;2023-02-22T01:01:27;101248.79;;;5.78;100.00
56681;BME280;42558;52.388;13.390;2023-02-22T01:03:56;101251.22;;;5.73;100.00
56681;BME280;42558;52.388;13.390;2023-02-22T01:06:26;101252.13;;;5.69;100.00
56681;BME280;42558;52.388;13.390;2023-02-22T01:08:57;101248.46;;;5.66;100.00
56681;BME280;42558;52.388;13.390;2023-02-22T01:11:28;101247.97;;;5.62;100.00
56681;BME280;42558;52.388;13.390;2023-02-22T01:13:58;101243.83;;;5.55;100.00
56681;BME280;42558;52.388;13.390;2023-02-22T01:16:28;101245.91;;;5.46;100.00
56681;BME280;42558;52.388;13.390;2023-02-22T01:18:58;101244.22;;;5.36;100.00
56681;BME280;42558;52.388;13.390;2023-02-22T01:21:29;101241.68;;;5.25;100.00
56681;BME280;42558;52.388;13.390;2023-02-22T01:23:59;101243.69;;;5.14;100.00
56681;BME280;42558;52.388;13.390;2023-02-22T01:26:29;101239.65;;;5.06;100.00
56681;BME280;42558;52.388;13.390;2023-02-22T01:28:59;101239.92;;;4.96;100.00
56681;BME280;42558;52.388;13.390;2023-02-22T01:31:29;101241.83;;;4.88;100.00
56681;BME280;42558;52.388;13.390;2023-02-22T01:33:59;101247.10;;;4.81;100.00
56681;BME280;42558;52.388;13.390;2023-02-22T01:36:28;101245.89;;;4.77;100.00
56681;BME280;42558;52.388;13.390;2023-02-22T01:38:58;101243.94;;;4.73;100.00
56681;BME280;42558;52.388;13.390;2023-02-22T01:41:28;101248.66;;;4.69;100.00
56681;BME280;42558;52.388;13.390;2023-02-22T01:46:57;101244.15;;;4.61;100.00
56681;BME280;42558;52.388;13.390;2023-02-22T01:49:39;101244.16;;;4.54;100.00
56681;BME280;42558;52.388;13.390;2023-02-22T01:52:14;101239.86;;;4.44;100.00
56681;BME280;42558;52.388;13.390;2023-02-22T01:54:54;101234.16;;;4.34;100.00
56681;BME280;42558;52.388;13.390;2023-02-22T01:57:34;101232.94;;;4.26;100.00
56681;BME280;42558;52.388;13.390;2023-02-22T02:00:12;101235.15;;;4.22;100.00
56681;BME280;42558;52.388;13.390;2023-02-22T02:02:51;101235.80;;;4.17;100.00
56681;BME280;42558;52.388;13.390;2023-02-22T02:05:30;101236.33;;;4.17;100.00
56681;BME280;42558;52.388;13.390;2023-02-22T02:08:32;101230.64;;;4.07;100.00
56681;BME280;42558;52.388;13.390;2023-02-22T02:11:08;101230.61;;;4.06;100.00
56681;BME280;42558;52.388;13.390;2023-02-22T02:13:38;101229.70;;;4.05;100.00
56681;BME280;42558;52.388;13.390;2023-02-22T02:16:09;101224.35;;;4.02;100.00
56681;BME280;42558;52.388;13.390;2023-02-22T02:18:39;101227.45;;;3.98;100.00
56681;BME280;42558;52.388;13.390;2023-02-22T02:27:23;101230.02;;;3.90;100.00
56681;BME280;42558;52.388;13.390;2023-02-22T02:33:05;101230.16;;;3.94;100.00
56681;BME280;42558;52.388;13.390;2023-02-22T02:46:41;101221.41;;;3.81;100.00
56681;BME280;42558;52.388;13.390;2023-02-22T02:49:23;101225.33;;;3.80;100.00
56681;BME280;42558;52.388;13.390;2023-02-22T02:51:56;101223.43;;;3.76;100.00
56681;BME280;42558;52.388;13.390;2023-02-22T02:54:28;101221.80;;;3.75;100.00
56681;BME280;42558;52.388;13.390;2023-02-22T02:56:58;101221.40;;;3.77;100.00
56681;BME280;42558;52.388;13.390;2023-02-22T02:59:32;101220.80;;;3.80;100.00
56681;BME280;42558;52.388;13.390;2023-02-22T03:07:32;101215.36;;;3.86;100.00
56681;BME280;42558;52.388;13.390;2023-02-22T03:10:26;101217.23;;;3.88;100.00
56681;BME280;42558;52.388;13.390;2023-02-22T03:13:28;101217.05;;;3.92;100.00
56681;BME280;42558;52.388;13.390;2023-02-22T03:16:20;101218.23;;;3.95;100.00
56681;BME280;42558;52.388;13.390;2023-02-22T03:19:20;101215.50;;;3.96;100.00
56681;BME280;42558;52.388;13.390;2023-02-22T03:24:48;101211.47;;;3.99;100.00
56681;BME280;42558;52.388;13.390;2023-02-22T03:30:13;101210.09;;;3.99;100.00
56681;BME280;42558;52.388;13.390;2023-02-22T03:32:50;101210.28;;;4.00;100.00
56681;BME280;42558;52.388;13.390;2023-02-22T03:35:25;101204.19;;;4.00;100.00
56681;BME280;42558;52.388;13.390;2023-02-22T03:38:03;101208.67;;;4.02;100.00
56681;BME280;42558;52.388;13.390;2023-02-22T03:40:43;101204.42;;;4.04;100.00
56681;BME280;42558;52.388;13.390;2023-02-22T03:43:21;101205.55;;;4.06;100.00
56681;BME280;42558;52.388;13.390;2023-02-22T03:45:53;101208.48;;;4.09;100.00
56681;BME280;42558;52.388;13.390;2023-02-22T03:51:14;101213.30;;;4.16;100.00
56681;BME280;42558;52.388;13.390;2023-02-22T03:53:46;101208.70;;;4.18;100.00
56681;BME280;42558;52.388;13.390;2023-02-22T03:56:24;101207.60;;;4.20;100.00
56681;BME280;42558;52.388;13.390;2023-02-22T03:58:55;101209.33;;;4.24;100.00
56681;BME280;42558;52.388;13.390;2023-02-22T04:01:25;101209.38;;;4.25;100.00
56681;BME280;42558;52.388;13.390;2023-02-22T04:03:55;101208.52;;;4.25;100.00
56681;BME280;42558;52.388;13.390;2023-02-22T04:06:26;101206.05;;;4.29;100.00
56681;BME280;42558;52.388;13.390;2023-02-22T04:08:56;101202.16;;;4.31;100.00
56681;BME280;42558;52.388;13.390;2023-02-22T04:11:25;101203.34;;;4.34;100.00
56681;BME280;42558;52.388;13.390;2023-02-22T04:13:55;101204.48;;;4.35;100.00
56681;BME280;42558;52.388;13.390;2023-02-22T04:16:25;101206.10;;;4.37;100.00
56681;BME280;42558;52.388;13.390;2023-02-22T04:18:55;101208.35;;;4.36;100.00
56681;BME280;42558;52.388;13.390;2023-02-22T04:21:25;101207.33;;;4.37;100.00
56681;BME280;42558;52.388;13.390;2023-02-22T04:23:55;101206.50;;;4.38;100.00
56681;BME280;42558;52.388;13.390;2023-02-22T04:26:25;101207.41;;;4.39;100.00
56681;BME280;42558;52.388;13.390;2023-02-22T04:28:55;101210.72;;;4.39;100.00
56681;BME280;42558;52.388;13.390;2023-02-22T04:31:25;101208.70;;;4.37;100.00
56681;BME280;42558;52.388;13.390;2023-02-22T04:33:55;101207.29;;;4.36;100.00
56681;BME280;42558;52.388;13.390;2023-02-22T04:36:27;101209.98;;;4.38;100.00
56681;BME280;42558;52.388;13.390;2023-02-22T04:38:58;101208.82;;;4.40;100.00
56681;BME280;42558;52.388;13.390;2023-02-22T04:41:28;101207.41;;;4.39;100.00
56681;BME280;42558;52.388;13.390;2023-02-22T04:44:00;101200.85;;;4.40;100.00
56681;BME280;42558;52.388;13.390;2023-02-22T04:46:30;101203.17;;;4.41;100.00
56681;BME280;42558;52.388;13.390;2023-02-22T04:49:00;101200.93;;;4.42;100.00
56681;BME280;42558;52.388;13.390;2023-02-22T04:51:30;101200.23;;;4.46;100.00
56681;BME280;42558;52.388;13.390;2023-02-22T04:54:00;101196.35;;;4.48;100.00
56681;BME280;42558;52.388;13.390;2023-02-22T04:56:30;101199.95;;;4.51;100.00
56681;BME280;42558;52.388;13.390;2023-02-22T04:58:59;101199.88;;;4.53;100.00
56681;BME280;42558;52.388;13.390;2023-02-22T05:01:34;101198.51;;;4.54;100.00
56681;BME280;42558;52.388;13.390;2023-02-22T05:04:06;101201.16;;;4.54;100.00
56681;BME280;42558;52.388;13.390;2023-02-22T05:06:36;101201.55;;;4.55;100.00
56681;BME280;42558;52.388;13.390;2023-02-22T05:09:05;101195.14;;;4.56;100.00
56681;BME280;42558;52.388;13.390;2023-02-22T05:11:35;101200.98;;;4.58;100.00
56681;BME280;42558;52.388;13.390;2023-02-22T05:14:05;101194.02;;;4.59;100.00
56681;BME280;42558;52.388;13.390;2023-02-22T05:16:36;101196.02;;;4.61;100.00
56681;BME280;42558;52.388;13.390;2023-02-22T05:19:06;101194.65;;;4.61;100.00
56681;BME280;42558;52.388;13.390;2023-02-22T05:21:36;101190.39;;;4.63;100.00
56681;BME280;42558;52.388;13.390;2023-02-22T05:24:06;101188.23;;;4.65;100.00
56681;BME280;42558;52.388;13.390;2023-02-22T05:26:36;101183.98;;;4.68;100.00
56681;BME280;42558;52.388;13.390;2023-02-22T05:29:06;101181.95;;;4.73;100.00
56681;BME280;42558;52.388;13.390;2023-02-22T05:31:36;101186.38;;;4.79;100.00
56681;BME280;42558;52.388;13.390;2023-02-22T05:34:06;101188.33;;;4.80;100.00
56681;BME280;42558;52.388;13.390;2023-02-22T05:36:36;101186.23;;;4.79;100.00
56681;BME280;42558;52.388;13.390;2023-02-22T05:39:06;101187.58;;;4.79;100.00
56681;BME280;42558;52.388;13.390;2023-02-22T05:41:35;101184.08;;;4.82;100.00
56681;BME280;42558;52.388;13.390;2023-02-22T05:44:05;101188.41;;;4.81;100.00
56681;BME280;42558;52.388;13.390;2023-02-22T05:46:35;101189.44;;;4.81;100.00
56681;BME280;42558;52.388;13.390;2023-02-22T05:49:05;101189.65;;;4.82;100.00
56681;BME280;42558;52.388;13.390;2023-02-22T05:51:35;101186.45;;;4.84;100.00
56681;BME280;42558;52.388;13.390;2023-02-22T05:54:05;101191.27;;;4.83;100.00
56681;BME280;42558;52.388;13.390;2023-02-22T05:56:35;101191.80;;;4.83;100.00
56681;BME280;42558;52.388;13.390;2023-02-22T05:59:05;101191.81;;;4.83;100.00
56681;BME280;42558;52.388;13.390;2023-02-22T06:01:35;101194.41;;;4.83;100.00
56681;BME280;42558;52.388;13.390;2023-02-22T06:04:04;101193.96;;;4.85;100.00
56681;BME280;42558;52.388;13.390;2023-02-22T06:06:35;101201.73;;;4.87;100.00
56681;BME280;42558;52.388;13.390;2023-02-22T06:09:05;101200.55;;;4.88;100.00
56681;BME280;42558;52.388;13.390;2023-02-22T06:11:34;101205.72;;;4.91;100.00
56681;BME280;42558;52.388;13.390;2023-02-22T06:14:05;101206.52;;;4.94;100.00
56681;BME280;42558;52.388;13.390;2023-02-22T06:16:35;101207.13;;;4.95;100.00
56681;BME280;42558;52.388;13.390;2023-02-22T06:19:04;101211.58;;;4.94;100.00
56681;BME280;42558;52.388;13.390;2023-02-22T06:21:32;101210.92;;;4.94;100.00
56681;BME280;42558;52.388;13.390;2023-02-22T06:24:04;101212.83;;;4.94;100.00
56681;BME280;42558;52.388;13.390;2023-02-22T06:26:32;101211.10;;;4.95;100.00
56681;BME280;42558;52.388;13.390;2023-02-22T06:29:00;101215.77;;;4.97;100.00
56681;BME280;42558;52.388;13.390;2023-02-22T06:31:28;101215.48;;;4.99;100.00
56681;BME280;42558;52.388;13.390;2023-02-22T06:33:57;101213.60;;;5.00;100.00
56681;BME280;42558;52.388;13.390;2023-02-22T06:36:25;101216.15;;;5.02;100.00
56681;BME280;42558;52.388;13.390;2023-02-22T06:38:57;101217.11;;;5.04;100.00
56681;BME280;42558;52.388;13.390;2023-02-22T06:41:27;101218.45;;;5.07;100.00
56681;BME280;42558;52.388;13.390;2023-02-22T06:43:56;101222.61;;;5.07;100.00
56681;BME280;42558;52.388;13.390;2023-02-22T06:46:26;101223.95;;;5.09;100.00
56681;BME280;42558;52.388;13.390;2023-02-22T06:48:56;101224.40;;;5.12;100.00
56681;BME280;42558;52.388;13.390;2023-02-22T06:51:28;101226.66;;;5.11;100.00
56681;BME280;42558;52.388;13.390;2023-02-22T06:53:59;101233.52;;;5.13;100.00
56681;BME280;42558;52.388;13.390;2023-02-22T06:56:29;101232.08;;;5.16;100.00
56681;BME280;42558;52.388;13.390;2023-02-22T06:58:58;101235.90;;;5.20;100.00
56681;BME280;42558;52.388;13.390;2023-02-22T07:01:31;101235.23;;;5.25;100.00
56681;BME280;42558;52.388;13.390;2023-02-22T07:04:01;101239.79;;;5.29;100.00
56681;BME280;42558;52.388;13.390;2023-02-22T07:06:31;101244.48;;;5.29;100.00
56681;BME280;42558;52.388;13.390;2023-02-22T07:09:02;101245.90;;;5.30;100.00
56681;BME280;42558;52.388;13.390;2023-02-22T07:11:32;101245.09;;;5.31;100.00
56681;BME280;42558;52.388;13.390;2023-02-22T07:14:02;101243.14;;;5.34;100.00
56681;BME280;42558;52.388;13.390;2023-02-22T07:16:32;101243.75;;;5.40;100.00
56681;BME280;42558;52.388;13.390;2023-02-22T07:19:02;101243.67;;;5.47;100.00
56681;BME280;42558;52.388;13.390;2023-02-22T07:21:30;101244.59;;;5.52;100.00
56681;BME280;42558;52.388;13.390;2023-02-22T07:23:59;101246.71;;;5.53;100.00
56681;BME280;42558;52.388;13.390;2023-02-22T07:26:27;101250.86;;;5.56;100.00
56681;BME280;42558;52.388;13.390;2023-02-22T07:28:56;101248.20;;;5.59;100.00
56681;BME280;42558;52.388;13.390;2023-02-22T07:31:24;101248.42;;;5.61;100.00
56681;BME280;42558;52.388;13.390;2023-02-22T07:33:56;101247.98;;;5.58;100.00
56681;BME280;42558;52.388;13.390;2023-02-22T07:36:24;101247.46;;;5.63;100.00
56681;BME280;42558;52.388;13.390;2023-02-22T07:38:53;101245.85;;;5.66;100.00
56681;BME280;42558;52.388;13.390;2023-02-22T07:41:21;101247.09;;;5.71;100.00
56681;BME280;42558;52.388;13.390;2023-02-22T07:43:49;101248.19;;;5.72;100.00
56681;BME280;42558;52.388;13.390;2023-02-22T07:46:18;101245.96;;;5.77;100.00
56681;BME280;42558;52.388;13.390;2023-02-22T07:48:46;101247.05;;;5.74;100.00
56681;BME280;42558;52.388;13.390;2023-02-22T07:51:16;101247.70;;;5.77;100.00
56681;BME280;42558;52.388;13.390;2023-02-22T07:53:49;101247.30;;;5.84;100.00
56681;BME280;42558;52.388;13.390;2023-02-22T07:56:19;101249.05;;;5.85;100.00
56681;BME280;42558;52.388;13.390;2023-02-22T07:58:49;101246.64;;;5.89;100.00
56681;BME280;42558;52.388;13.390;2023-02-22T08:01:18;101248.52;;;5.92;100.00
56681;BME280;42558;52.388;13.390;2023-02-22T08:03:49;101249.92;;;5.92;100.00
56681;BME280;42558;52.388;13.390;2023-02-22T08:06:19;101251.89;;;5.98;100.00
56681;BME280;42558;52.388;13.390;2023-02-22T08:08:49;101250.67;;;5.98;100.00
56681;BME280;42558;52.388;13.390;2023-02-22T08:11:19;101252.04;;;5.97;100.00
56681;BME280;42558;52.388;13.390;2023-02-22T08:13:49;101254.73;;;5.99;100.00
56681;BME280;42558;52.388;13.390;2023-02-22T08:16:19;101256.70;;;6.09;100.00
56681;BME280;42558;52.388;13.390;2023-02-22T08:18:49;101259.12;;;6.08;100.00
56681;BME280;42558;52.388;13.390;2023-02-22T08:21:19;101253.20;;;6.17;100.00
56681;BME280;42558;52.388;13.390;2023-02-22T08:23:52;101256.88;;;6.18;100.00
56681;BME280;42558;52.388;13.390;2023-02-22T08:26:22;101255.36;;;6.24;100.00
56681;BME280;42558;52.388;13.390;2023-02-22T08:28:53;101256.45;;;6.29;100.00
56681;BME280;42558;52.388;13.390;2023-02-22T08:31:20;101255.30;;;6.31;100.00
56681;BME280;42558;52.388;13.390;2023-02-22T08:33:48;101256.50;;;6.35;100.00
56681;BME280;42558;52.388;13.390;2023-02-22T08:36:18;101254.84;;;6.37;100.00
56681;BME280;42558;52.388;13.390;2023-02-22T08:38:48;101251.91;;;6.43;100.00
56681;BME280;42558;52.388;13.390;2023-02-22T08:41:18;101255.61;;;6.48;100.00
56681;BME280;42558;52.388;13.390;2023-02-22T08:43:48;101257.48;;;6.43;100.00
56681;BME280;42558;52.388;13.390;2023-02-22T08:46:18;101252.04;;;6.51;100.00
56681;BME280;42558;52.388;13.390;2023-02-22T08:48:52;101253.07;;;6.60;100.00
56681;BME280;42558;52.388;13.390;2023-02-22T08:51:22;101250.20;;;6.67;100.00
56681;BME280;42558;52.388;13.390;2023-02-22T08:53:54;101255.88;;;6.51;100.00
56681;BME280;42558;52.388;13.390;2023-02-22T08:56:23;101251.98;;;6.54;100.00
56681;BME280;42558;52.388;13.390;2023-02-22T08:58:53;101251.96;;;6.63;100.00
56681;BME280;42558;52.388;13.390;2023-02-22T09:01:23;101246.30;;;6.65;100.00
56681;BME280;42558;52.388;13.390;2023-02-22T09:04:01;101242.68;;;6.67;100.00
56681;BME280;42558;52.388;13.390;2023-02-22T09:06:32;101243.55;;;6.67;100.00
56681;BME280;42558;52.388;13.390;2023-02-22T09:09:02;101247.42;;;6.72;100.00
56681;BME280;42558;52.388;13.390;2023-02-22T09:11:32;101249.52;;;6.72;100.00
56681;BME280;42558;52.388;13.390;2023-02-22T09:14:01;101253.35;;;6.72;100.00
56681;BME280;42558;52.388;13.390;2023-02-22T09:16:31;101249.05;;;6.88;100.00
56681;BME280;42558;52.388;13.390;2023-02-22T09:19:02;101247.12;;;7.02;100.00
56681;BME280;42558;52.388;13.390;2023-02-22T09:21:32;101252.95;;;7.04;100.00
56681;BME280;42558;52.388;13.390;2023-02-22T09:24:02;101251.84;;;6.88;100.00
56681;BME280;42558;52.388;13.390;2023-02-22T09:26:37;101249.52;;;6.77;100.00
56681;BME280;42558;52.388;13.390;2023-02-22T09:29:10;101243.04;;;7.01;100.00
56681;BME280;42558;52.388;13.390;2023-02-22T09:31:40;101246.55;;;7.11;100.00
56681;BME280;42558;52.388;13.390;2023-02-22T09:34:10;101242.27;;;7.19;100.00
56681;BME280;42558;52.388;13.390;2023-02-22T09:36:47;101245.58;;;7.28;100.00
56681;BME280;42558;52.388;13.390;2023-02-22T09:39:17;101242.61;;;7.33;100.00
56681;BME280;42558;52.388;13.390;2023-02-22T09:42:29;101241.57;;;7.23;99.28
56681;BME280;42558;52.388;13.390;2023-02-22T09:45:07;101240.30;;;7.32;99.33
56681;BME280;42558;52.388;13.390;2023-02-22T09:47:54;101240.58;;;7.46;99.12
56681;BME280;42558;52.388;13.390;2023-02-22T09:50:34;101237.58;;;7.50;98.20
56681;BME280;42558;52.388;13.390;2023-02-22T09:55:51;101235.66;;;7.55;97.22
56681;BME280;42558;52.388;13.390;2023-02-22T09:58:37;101235.84;;;7.56;96.94
56681;BME280;42558;52.388;13.390;2023-02-22T10:01:33;101231.79;;;7.60;96.35
56681;BME280;42558;52.388;13.390;2023-02-22T10:04:51;101231.54;;;7.57;95.77
56681;BME280;42558;52.388;13.390;2023-02-22T10:07:45;101232.75;;;7.68;96.82
56681;BME280;42558;52.388;13.390;2023-02-22T10:10:18;101234.08;;;7.65;95.24
56681;BME280;42558;52.388;13.390;2023-02-22T10:13:24;101233.05;;;7.45;95.37
56681;BME280;42558;52.388;13.390;2023-02-22T10:16:26;101229.86;;;7.49;95.47
56681;BME280;42558;52.388;13.390;2023-02-22T10:22:47;101224.90;;;7.85;94.95
56681;BME280;42558;52.388;13.390;2023-02-22T10:25:22;101224.20;;;7.79;94.41
56681;BME280;42558;52.388;13.390;2023-02-22T10:30:40;101218.95;;;7.90;93.26
56681;BME280;42558;52.388;13.390;2023-02-22T10:33:21;101218.70;;;7.82;92.15
56681;BME280;42558;52.388;13.390;2023-02-22T10:35:54;101218.64;;;7.91;92.78
56681;BME280;42558;52.388;13.390;2023-02-22T10:38:28;101220.52;;;7.96;92.17
56681;BME280;42558;52.388;13.390;2023-02-22T10:43:39;101217.21;;;7.80;90.95
56681;BME280;42558;52.388;13.390;2023-02-22T10:46:16;101220.97;;;7.88;90.72
56681;BME280;42558;52.388;13.390;2023-02-22T10:48:52;101217.87;;;7.83;90.09
56681;BME280;42558;52.388;13.390;2023-02-22T10:51:23;101217.55;;;7.96;91.13
56681;BME280;42558;52.388;13.390;2023-02-22T10:56:51;101214.06;;;8.02;90.72
56681;BME280;42558;52.388;13.390;2023-02-22T10:59:32;101213.63;;;7.77;90.51
56681;BME280;42558;52.388;13.390;2023-02-22T11:04:54;101214.45;;;7.86;90.02
56681;BME280;42558;52.388;13.390;2023-02-22T11:07:35;101211.16;;;8.05;89.46
56681;BME280;42558;52.388;13.390;2023-02-22T11:10:07;101211.73;;;8.11;89.24
56681;BME280;42558;52.388;13.390;2023-02-22T11:12:41;101210.40;;;8.14;88.56
56681;BME280;42558;52.388;13.390;2023-02-22T11:17:54;101208.86;;;7.98;85.90
56681;BME280;42558;52.388;13.390;2023-02-22T11:20:30;101209.20;;;7.98;86.91
56681;BME280;42558;52.388;13.390;2023-02-22T11:23:04;101208.77;;;7.95;86.16
56681;BME280;42558;52.388;13.390;2023-02-22T11:25:41;101205.09;;;7.95;86.22
56681;BME280;42558;52.388;13.390;2023-02-22T11:28:21;101203.30;;;8.10;86.50
56681;BME280;42558;52.388;13.390;2023-02-22T11:31:34;101198.58;;;8.22;86.25
56681;BME280;42558;52.388;13.390;2023-02-22T11:34:40;101194.04;;;8.29;86.95
56681;BME280;42558;52.388;13.390;2023-02-22T11:40:14;101189.05;;;8.26;86.01
56681;BME280;42558;52.388;13.390;2023-02-22T11:43:15;101185.08;;;8.33;85.67
56681;BME280;42558;52.388;13.390;2023-02-22T11:46:03;101177.48;;;8.26;85.10
56681;BME280;42558;52.388;13.390;2023-02-22T11:48:37;101173.34;;;8.28;85.62
56681;BME280;42558;52.388;13.390;2023-02-22T11:54:46;101169.89;;;8.40;85.51
56681;BME280;42558;52.388;13.390;2023-02-22T11:57:53;101166.34;;;8.45;84.41
56681;BME280;42558;52.388;13.390;2023-02-22T12:07:21;101156.64;;;8.37;84.64
56681;BME280;42558;52.388;13.390;2023-02-22T12:19:38;101150.06;;;8.52;85.31
56681;BME280;42558;52.388;13.390;2023-02-22T12:22:21;101147.13;;;8.47;84.62
56681;BME280;42558;52.388;13.390;2023-02-22T12:25:02;101145.58;;;8.48;84.97
56681;BME280;42558;52.388;13.390;2023-02-22T12:27:44;101147.24;;;8.39;84.67
56681;BME280;42558;52.388;13.390;2023-02-22T12:30:26;101148.15;;;8.34;85.00
56681;BME280;42558;52.388;13.390;2023-02-22T12:33:02;101149.55;;;8.46;85.34
56681;BME280;42558;52.388;13.390;2023-02-22T12:35:42;101150.11;;;8.48;84.84
56681;BME280;42558;52.388;13.390;2023-02-22T12:38:38;101145.85;;;8.45;85.05
56681;BME280;42558;52.388;13.390;2023-02-22T12:41:34;101142.98;;;8.49;85.07
56681;BME280;42558;52.388;13.390;2023-02-22T12:44:31;101143.90;;;8.51;85.01
56681;BME280;42558;52.388;13.390;2023-02-22T12:47:05;101145.73;;;8.41;85.42
56681;BME280;42558;52.388;13.390;2023-02-22T12:49:56;101144.09;;;8.33;85.33
56681;BME280;42558;52.388;13.390;2023-02-22T12:52:48;101148.64;;;8.38;85.32
56681;BME280;42558;52.388;13.390;2023-02-22T12:55:47;101144.89;;;8.31;84.97
56681;BME280;42558;52.388;13.390;2023-02-22T12:58:52;101143.86;;;8.43;85.37
56681;BME280;42558;52.388;13.390;2023-02-22T13:01:33;101139.75;;;8.53;85.15
56681;BME280;42558;52.388;13.390;2023-02-22T13:04:06;101141.66;;;8.46;83.77
56681;BME280;42558;52.388;13.390;2023-02-22T13:15:47;101128.54;;;8.46;83.57
56681;BME280;42558;52.388;13.390;2023-02-22T13:18:40;101127.05;;;8.50;83.48
56681;BME280;42558;52.388;13.390;2023-02-22T13:21:26;101125.80;;;8.49;83.16
56681;BME280;42558;52.388;13.390;2023-02-22T13:29:39;101121.14;;;8.52;82.99
56681;BME280;42558;52.388;13.390;2023-02-22T13:40:54;101116.61;;;8.66;82.03
56681;BME280;42558;52.388;13.390;2023-02-22T13:44:15;101116.59;;;8.52;82.25
56681;BME280;42558;52.388;13.390;2023-02-22T13:52:39;101109.07;;;8.46;81.22
56681;BME280;42558;52.388;13.390;2023-02-22T13:55:24;101106.57;;;8.44;81.58
56681;BME280;42558;52.388;13.390;2023-02-22T13:58:04;101110.98;;;8.59;81.61
56681;BME280;42558;52.388;13.390;2023-02-22T14:05:50;101113.41;;;8.58;81.34
56681;BME280;42558;52.388;13.390;2023-02-22T14:11:00;101111.05;;;8.61;80.99
56681;BME280;42558;52.388;13.390;2023-02-22T14:16:30;101105.73;;;8.58;81.27
56681;BME280;42558;52.388;13.390;2023-02-22T14:22:11;101102.66;;;8.55;81.08
56681;BME280;42558;52.388;13.390;2023-02-22T14:24:45;101102.02;;;8.57;81.34
56681;BME280;42558;52.388;13.390;2023-02-22T14:27:17;101101.30;;;8.63;81.78
56681;BME280;42558;52.388;13.390;2023-02-22T14:29:56;101099.11;;;8.66;81.71
56681;BME280;42558;52.388;13.390;2023-02-22T14:32:34;101093.88;;;8.61;81.56
56681;BME280;42558;52.388;13.390;2023-02-22T14:35:15;101091.42;;;8.61;81.32
56681;BME280;42558;52.388;13.390;2023-02-22T14:38:16;101091.84;;;8.57;81.07
56681;BME280;42558;52.388;13.390;2023-02-22T14:40:59;101088.45;;;8.55;80.92
56681;BME280;42558;52.388;13.390;2023-02-22T14:43:35;101090.18;;;8.54;80.68
56681;BME280;42558;52.388;13.390;2023-02-22T14:46:12;101086.48;;;8.59;81.45
56681;BME280;42558;52.388;13.390;2023-02-22T14:48:47;101084.23;;;8.54;80.75
56681;BME280;42558;52.388;13.390;2023-02-22T14:51:29;101083.20;;;8.49;80.83
56681;BME280;42558;52.388;13.390;2023-02-22T14:54:18;101079.60;;;8.45;81.01
56681;BME280;42558;52.388;13.390;2023-02-22T14:57:20;101077.86;;;8.52;81.60
56681;BME280;42558;52.388;13.390;2023-02-22T15:00:22;101074.92;;;8.47;81.59
56681;BME280;42558;52.388;13.390;2023-02-22T15:03:00;101074.02;;;8.39;81.82
56681;BME280;42558;52.388;13.390;2023-02-22T15:05:36;101074.77;;;8.35;81.91
56681;BME280;42558;52.388;13.390;2023-02-22T15:08:11;101071.94;;;8.34;82.17
56681;BME280;42558;52.388;13.390;2023-02-22T15:10:49;101066.33;;;8.34;83.06
56681;BME280;42558;52.388;13.390;2023-02-22T15:13:24;101064.72;;;8.34;82.70
56681;BME280;42558;52.388;13.390;2023-02-22T15:16:01;101062.43;;;8.33;82.61
56681;BME280;42558;52.388;13.390;2023-02-22T15:21:29;101060.88;;;8.34;83.38
56681;BME280;42558;52.388;13.390;2023-02-22T15:24:03;101059.10;;;8.33;83.27
56681;BME280;42558;52.388;13.390;2023-02-22T15:26:45;101060.70;;;8.28;83.10
56681;BME280;42558;52.388;13.390;2023-02-22T15:29:42;101056.41;;;8.30;83.10